x

South Moresby (46147) Wave Buoy

10:00pm - Sat 23rd May 2015 All times are PDT. -7 hours from GMT.

  • Sig Wave height 5.6ft
  • Peak Period 6s
  • Wind
    22mph, 27mph gusts
  • Sea Temp 52°f
  • Air Temp 50°f
  • Sea Pressure 1024.1mb
  • South Moresby
  • South Moresby

More Historic Weather Station data

Upgrade to MSW Pro to gain access to the past 30 days of data for over 8000 Wavebouys and Weather Stations around the globe.

Join Pro

Comparision Forecast

View Surf forecast
   
Sat 05/23 10:00pm 5.5ft 6s 22 27 mph 1024.1mb 52f 50f
9:00pm 5ft 6s 22 27 mph 1023.8mb 52f 50f
8:00pm 5ft 7s 22 29 mph 1023.6mb 52f 50f
7:00pm 6ft 6s 22 27 mph 1023.3mb 52f 51f
6:00pm 5.5ft 10s 22 29 mph 1023.5mb 52f 51f
5:00pm 5.5ft 12s 22 27 mph 1023.8mb 52f 51f
4:00pm 6ft 11s 22 27 mph 1023.8mb 52f 51f
3:00pm 6ft 12s 20 25 mph 1024mb 52f 50f
2:00pm 6ft 6s 20 25 mph 1024.1mb 53f 50f
1:00pm 6ft 12s 18 25 mph 1023.9mb 53f 50f
12:00pm 6ft 11s 16 20 mph 1023.3mb 53f 51f
10:00am 6.5ft 11s 20 25 mph 1022.5mb 51f 51f
9:00am 6.5ft 12s 20 27 mph 1022.2mb 51f 50f
8:00am  -   -  20
mph
1021.9mb - 50f
7:00am 6ft 12s 20 25 mph 1021.5mb 51f 50f
6:00am 6ft 13s 22 25 mph 1020.9mb 51f 50f
5:00am 6ft 9s 20 25 mph 1020.6mb 51f 50f
4:00am 7ft 7s 22 27 mph 1020.5mb 51f 50f
3:00am 7ft 7s 20 25 mph 1020.4mb 51f 50f
2:00am 7.5ft 8s 22 27 mph 1020.2mb 51f 50f
1:00am 8ft 8s 25 27 mph 1020.1mb 51f 50f
12:00am 7ft 8s 22 27 mph 1019.9mb 52f 50f
Fri 05/22 11:00pm 7ft 7s 25 29 mph 1019.5mb 52f 50f
10:00pm 8ft 8s 25 29 mph 1018.8mb 52f 50f
9:00pm 8ft 6s 25 31 mph 1018.3mb 52f 50f
8:00pm 7ft 8s 27 31 mph 1018.1mb 52f 51f
7:00pm 7.5ft 7s 25 29 mph 1017.9mb 52f 51f
6:00pm 7.5ft 7s 25 29 mph 1018mb 52f 51f
5:00pm 7.5ft 7s 25 29 mph 1018.1mb 53f 51f
4:00pm 7.5ft 7s 22 27 mph 1018.3mb 53f 51f
3:00pm 7ft 7s 20 25 mph 1018.3mb 53f 51f
2:00pm 8ft 7s 20 25 mph 1018.2mb 53f 51f
1:00pm 8ft 8s 20 27 mph 1018.2mb 53f 51f
12:00pm 8ft 8s 20 25 mph 1018.1mb 53f 51f
11:00am 7.5ft 8s 22 27 mph 1018.1mb 53f 51f
10:00am 7.5ft 7s 22 29 mph 1017.7mb 52f 50f
9:00am 8ft 8s 22 27 mph 1017.4mb 51f 50f
8:00am 8ft 7s 25 29 mph 1017.2mb 51f 50f
7:00am  -   -  27
mph
1016.8mb 51f 50f
6:00am 7.5ft 8s 27 34 mph 1016.7mb 51f 50f
5:00am 7.5ft 8s 25 29 mph 1016.6mb 51f 50f
4:00am 8ft 8s 22 27 mph 1016.3mb 51f 50f
3:00am 7.5ft 7s 22 27 mph 1016.5mb 51f 50f
2:00am 7.5ft 8s 25 29 mph 1016.5mb 51f 50f
1:00am 8ft 7s 25 31 mph 1016.7mb 51f 50f
12:00am 7.5ft 8s 22 27 mph 1016.8mb 51f 51f
Thu 05/21 11:00pm 6.5ft 7s 25 29 mph 1016.4mb 51f 50f
10:00pm 6ft 7s 22 27 mph 1016.2mb 51f 50f
9:00pm 6ft 7s 27 31 mph 1015.9mb 51f 51f
8:00pm 6ft 7s 22 29 mph 1015.7mb 51f 51f
7:00pm 6.5ft 7s 22 29 mph 1015.9mb 51f 51f
6:00pm 7ft 6s 22 29 mph 1016.1mb 51f 51f
5:00pm 8ft 7s 20 25 mph 1016.4mb 51f 51f
4:00pm 8ft 7s 18 25 mph 1016.7mb 51f 51f
2:00pm 8ft 7s 20 25 mph 1016.9mb 52f 51f
1:00pm 8ft 7s 22 27 mph 1017mb 53f 51f
12:00pm 8ft 7s 20 27 mph 1017.1mb 53f 50f
11:00am 7.5ft 7s 20 25 mph 1017.3mb 53f 50f
10:00am 7ft 7s 20 25 mph 1017.4mb 53f 50f
9:00am 6ft 7s 22 27 mph 1017.1mb 53f 50f
8:00am 6ft 7s 22 27 mph 1017mb 51f 49f
7:00am 6ft 11s 22 27 mph 1016.8mb 51f 49f
6:00am 6ft 6s 22 25 mph 1016.8mb 51f 49f
5:00am  -   -  20
mph
- - -
4:00am  -   -  20
mph
1017.2mb - 50f
3:00am 6ft 11s 20 25 mph 1017.3mb 51f 50f
2:00am 6ft 9s 22 25 mph 1017.5mb 51f 50f
1:00am 6ft 7s 20 25 mph 1017.5mb 51f 50f
12:00am 6.5ft 6s 22 27 mph 1017.6mb 52f 50f
Wed 05/20 11:00pm 6ft 6s 20 25 mph 1017.9mb 52f 50f
10:00pm  -   -  22
mph
1017.9mb - 50f
9:00pm  -   -  25
mph
- - -
8:00pm 5.5ft 12s 22 27 mph 1018.1mb 51f 50f
7:00pm 5ft 11s 22 27 mph 1018.3mb 51f 50f
5:00pm 5.5ft 10s 18 25 mph 1018.9mb 51f 51f
4:00pm 6ft 11s 18 22 mph 1019.4mb 51f 50f
3:00pm 6ft 12s 16 20 mph 1019.6mb 50f 51f
2:00pm 6ft 11s 16 18 mph 1020mb 51f 51f
1:00pm 6ft 6s 18 20 mph 1020.4mb 52f 51f
12:00pm  -   -  16
mph
- - 51f
11:00am 5.5ft 12s 18 22 mph 1020.7mb 51f 51f
10:00am 5ft 11s 18 22 mph 1020.8mb 52f 50f
9:00am 5ft 11s 18 22 mph 1020.8mb 52f 50f
8:00am 4.5ft 12s 18 22 mph 1020.7mb 52f 50f
7:00am 4.5ft 5s 18 22 mph 1020.6mb 51f 50f